createdAt,value
2018-10-21T00:00:30.808Z,7.90
2018-10-21T00:02:59.844Z,8.00
2018-10-21T00:05:28.075Z,8.10
2018-10-21T00:07:56.630Z,8.20
2018-10-21T00:10:24.965Z,8.30
2018-10-21T00:12:53.217Z,8.40
2018-10-21T00:15:54.951Z,8.30
2018-10-21T00:18:23.273Z,8.30
2018-10-21T00:20:51.577Z,8.30
2018-10-21T00:23:19.843Z,8.30
2018-10-21T00:25:48.595Z,8.20
2018-10-21T00:28:45.538Z,8.20
2018-10-21T00:31:20.278Z,8.20
2018-10-21T00:33:49.873Z,8.00
2018-10-21T00:36:23.989Z,7.90
2018-10-21T00:38:55.690Z,7.80
2018-10-21T00:41:27.326Z,7.70
2018-10-21T00:43:59.947Z,7.80
2018-10-21T00:46:31.694Z,7.80
2018-10-21T00:49:06.937Z,7.60
2018-10-21T00:51:37.139Z,7.60
2018-10-21T00:54:13.327Z,7.50
2018-10-21T00:56:48.654Z,7.50
2018-10-21T00:59:21.528Z,7.60
2018-10-21T01:01:54.273Z,7.60
2018-10-21T01:04:24.482Z,7.70
2018-10-21T01:07:04.484Z,7.70
2018-10-21T01:09:36.795Z,7.70
2018-10-21T01:12:09.251Z,7.70
2018-10-21T01:14:42.348Z,7.70
2018-10-21T01:17:10.638Z,7.60
2018-10-21T01:19:38.909Z,7.60
2018-10-21T01:22:07.172Z,7.50
2018-10-21T01:24:35.447Z,7.40
2018-10-21T01:27:07.640Z,7.30
2018-10-21T01:29:35.856Z,7.00
2018-10-21T01:32:04.254Z,6.80
2018-10-21T01:34:32.516Z,6.70
2018-10-21T01:37:00.857Z,6.60
2018-10-21T01:39:39.300Z,6.60
2018-10-21T01:42:07.575Z,6.70
2018-10-21T01:44:35.824Z,6.70
2018-10-21T01:47:04.213Z,6.60
2018-10-21T01:49:32.562Z,6.50
2018-10-21T01:52:00.838Z,6.50
2018-10-21T01:54:29.121Z,6.40
2018-10-21T01:56:57.423Z,6.40
2018-10-21T01:59:25.650Z,6.40
2018-10-21T02:01:53.930Z,6.40
2018-10-21T02:04:22.198Z,6.50
2018-10-21T02:06:50.486Z,6.60
2018-10-21T02:09:18.730Z,6.80
2018-10-21T02:11:47.015Z,7.00
2018-10-21T02:14:15.316Z,7.10
2018-10-21T02:16:43.519Z,7.10
2018-10-21T02:19:11.810Z,7.00
2018-10-21T02:21:40.056Z,7.00
2018-10-21T02:24:08.316Z,7.10
2018-10-21T02:26:36.729Z,7.20
2018-10-21T02:29:05.362Z,7.30
2018-10-21T02:31:33.629Z,7.40
2018-10-21T02:34:01.905Z,7.40
2018-10-21T02:36:30.180Z,7.40
2018-10-21T02:38:58.509Z,7.40
2018-10-21T02:41:43.216Z,7.30
2018-10-21T02:44:13.029Z,7.30
2018-10-21T02:46:41.902Z,7.30
2018-10-21T02:49:10.882Z,7.30
2018-10-21T02:51:39.250Z,7.30
2018-10-21T02:54:08.331Z,7.40
2018-10-21T02:56:36.886Z,7.30
2018-10-21T02:59:06.444Z,7.30
2018-10-21T03:01:34.814Z,7.30
2018-10-21T03:04:03.139Z,7.10
2018-10-21T03:06:31.685Z,7.00
2018-10-21T03:09:00.030Z,6.90
2018-10-21T03:11:28.264Z,6.90
2018-10-21T03:13:56.529Z,6.90
2018-10-21T03:16:24.817Z,6.90
2018-10-21T03:18:53.090Z,6.90
2018-10-21T03:21:21.525Z,6.90
2018-10-21T03:23:50.151Z,6.80
2018-10-21T03:26:18.445Z,6.80
2018-10-21T03:28:46.801Z,6.90
2018-10-21T03:31:15.067Z,6.80
2018-10-21T03:33:43.631Z,6.80
2018-10-21T03:36:11.785Z,6.70
2018-10-21T03:38:40.049Z,6.70
2018-10-21T03:41:08.356Z,6.70
2018-10-21T03:43:36.613Z,6.60
2018-10-21T03:46:05.118Z,6.50
2018-10-21T03:48:33.365Z,6.50
2018-10-21T03:51:01.998Z,6.50
2018-10-21T03:53:30.273Z,6.40
2018-10-21T03:55:58.547Z,6.40
2018-10-21T03:58:26.823Z,6.20
2018-10-21T04:00:55.099Z,6.10
2018-10-21T04:03:23.398Z,6.00
2018-10-21T04:05:51.677Z,5.80
2018-10-21T04:08:19.963Z,5.50
2018-10-21T04:10:48.294Z,5.30
2018-10-21T04:13:16.628Z,5.30
2018-10-21T04:15:44.893Z,5.30
2018-10-21T04:18:13.140Z,5.30
2018-10-21T04:20:41.644Z,5.30
2018-10-21T04:23:09.894Z,5.20
2018-10-21T04:25:38.942Z,5.20
2018-10-21T04:28:07.921Z,5.20
2018-10-21T04:30:38.394Z,5.20
2018-10-21T04:33:12.123Z,5.30
2018-10-21T04:35:40.424Z,5.30
2018-10-21T04:38:28.307Z,5.20
2018-10-21T04:40:56.577Z,5.20
2018-10-21T04:43:24.848Z,5.10
2018-10-21T04:45:53.144Z,5.20
2018-10-21T04:48:21.585Z,5.20
2018-10-21T04:50:49.895Z,5.20
2018-10-21T04:53:18.164Z,5.30
2018-10-21T04:55:46.449Z,5.40
2018-10-21T04:58:14.854Z,5.40
2018-10-21T05:00:43.233Z,5.40
2018-10-21T05:03:11.454Z,5.50
2018-10-21T05:05:39.715Z,5.60
2018-10-21T05:08:07.977Z,5.60
2018-10-21T05:10:37.493Z,5.60
2018-10-21T05:13:06.633Z,5.50
2018-10-21T05:15:36.175Z,5.40
2018-10-21T05:18:04.618Z,5.40
2018-10-21T05:20:32.994Z,5.40
2018-10-21T05:23:01.342Z,5.40
2018-10-21T05:25:29.970Z,5.10
2018-10-21T05:27:58.247Z,5.10
2018-10-21T05:30:26.497Z,4.90
2018-10-21T05:32:54.785Z,5.00
2018-10-21T05:35:23.050Z,5.10
2018-10-21T05:37:51.316Z,5.00
2018-10-21T05:40:20.949Z,5.00
2018-10-21T05:42:49.716Z,4.90
2018-10-21T05:45:18.012Z,5.00
2018-10-21T05:47:46.352Z,5.00
2018-10-21T05:50:15.568Z,4.90
2018-10-21T05:52:44.224Z,4.90
2018-10-21T05:55:13.384Z,5.00
2018-10-21T05:57:41.875Z,5.20
2018-10-21T06:00:14.706Z,5.30
2018-10-21T06:02:43.202Z,5.30
2018-10-21T06:05:22.965Z,5.40
2018-10-21T06:07:51.285Z,5.30
2018-10-21T06:10:19.734Z,5.30
2018-10-21T06:12:48.029Z,5.30
2018-10-21T06:15:16.372Z,5.20
2018-10-21T06:17:44.652Z,5.30
2018-10-21T06:20:23.698Z,5.40
2018-10-21T06:22:52.977Z,5.50
2018-10-21T06:25:21.297Z,5.80
2018-10-21T06:27:49.722Z,6.10
2018-10-21T06:30:17.972Z,6.40
2018-10-21T06:32:46.306Z,6.70
2018-10-21T06:35:14.583Z,7.20
2018-10-21T06:37:42.865Z,7.80
2018-10-21T06:40:12.177Z,8.30
2018-10-21T06:42:40.583Z,8.80
2018-10-21T06:45:10.171Z,9.10
2018-10-21T06:47:38.463Z,9.30
2018-10-21T06:50:09.663Z,9.60
2018-10-21T06:52:38.049Z,9.80
2018-10-21T06:55:06.577Z,10.00
2018-10-21T06:57:34.880Z,10.30
2018-10-21T07:00:03.321Z,10.40
2018-10-21T07:02:31.695Z,10.60
2018-10-21T07:05:00.075Z,10.80
2018-10-21T07:07:28.397Z,11.20
2018-10-21T07:09:56.834Z,11.40
2018-10-21T07:12:25.112Z,11.60
2018-10-21T07:14:53.478Z,11.90
2018-10-21T07:17:21.891Z,12.10
2018-10-21T07:19:50.602Z,12.30
2018-10-21T07:22:18.906Z,12.50
2018-10-21T07:24:47.318Z,12.90
2018-10-21T07:27:17.184Z,13.10
2018-10-21T07:29:45.522Z,13.40
2018-10-21T07:32:14.027Z,13.70
2018-10-21T07:34:42.640Z,13.70
2018-10-21T07:37:11.060Z,13.90
2018-10-21T07:39:39.451Z,13.80
2018-10-21T07:42:07.994Z,14.20
2018-10-21T07:44:36.448Z,14.80
2018-10-21T07:47:04.944Z,14.90
2018-10-21T07:49:33.262Z,15.30
2018-10-21T07:52:02.013Z,15.70
2018-10-21T07:54:30.278Z,15.60
2018-10-21T07:56:59.410Z,15.80
2018-10-21T07:59:28.001Z,15.90
2018-10-21T08:01:56.546Z,16.40
2018-10-21T08:04:25.606Z,16.90
2018-10-21T08:07:05.620Z,17.30
2018-10-21T08:09:33.982Z,17.60
2018-10-21T08:12:02.462Z,17.70
2018-10-21T08:14:30.934Z,18.00
2018-10-21T08:16:59.182Z,18.40
2018-10-21T08:19:27.490Z,18.60
2018-10-21T08:21:56.939Z,18.30
2018-10-21T08:24:25.750Z,18.30
2018-10-21T08:26:54.223Z,18.30
2018-10-21T08:29:22.700Z,18.50
2018-10-21T08:31:50.970Z,18.30
2018-10-21T08:34:19.329Z,18.40
2018-10-21T08:36:47.652Z,18.60
2018-10-21T08:39:16.554Z,18.80
2018-10-21T08:41:45.158Z,18.90
2018-10-21T08:44:13.679Z,18.80
2018-10-21T08:46:42.143Z,18.90
2018-10-21T08:49:10.956Z,19.00
2018-10-21T08:51:39.281Z,18.90
2018-10-21T08:54:08.076Z,19.00
2018-10-21T08:56:36.662Z,18.70
2018-10-21T08:59:05.299Z,19.00
2018-10-21T09:01:33.709Z,19.10
2018-10-21T09:04:02.220Z,19.10
2018-10-21T09:06:30.783Z,19.30
2018-10-21T09:08:59.169Z,19.50
2018-10-21T09:11:28.114Z,19.90
2018-10-21T09:13:56.441Z,20.10
2018-10-21T09:16:29.630Z,20.60
2018-10-21T09:18:58.055Z,21.00
2018-10-21T09:21:26.356Z,21.10
2018-10-21T09:23:54.783Z,21.70
2018-10-21T09:26:27.357Z,21.80
2018-10-21T09:28:55.752Z,22.10
2018-10-21T09:31:25.170Z,22.20
2018-10-21T09:33:53.676Z,22.10
2018-10-21T09:36:22.278Z,22.10
2018-10-21T09:38:50.934Z,22.30
2018-10-21T09:41:19.222Z,22.30
2018-10-21T09:43:47.734Z,22.40
2018-10-21T09:46:17.298Z,22.30
2018-10-21T09:48:46.036Z,22.10
2018-10-21T09:51:14.622Z,21.90
2018-10-21T09:53:43.058Z,22.40
2018-10-21T09:56:11.322Z,22.70
2018-10-21T09:58:39.998Z,22.70
2018-10-21T10:01:13.762Z,22.30
2018-10-21T10:03:42.192Z,22.20
2018-10-21T10:06:10.564Z,22.30
2018-10-21T10:08:41.168Z,22.20
2018-10-21T10:11:09.836Z,22.30
2018-10-21T10:13:38.480Z,22.30
2018-10-21T10:16:06.883Z,22.20
2018-10-21T10:18:36.380Z,22.40
2018-10-21T10:21:05.090Z,22.50
2018-10-21T10:23:33.606Z,22.50
2018-10-21T10:26:01.850Z,22.40
2018-10-21T10:28:30.365Z,22.30
2018-10-21T10:30:58.703Z,22.50
2018-10-21T10:33:26.988Z,22.40
2018-10-21T10:35:55.537Z,21.80
2018-10-21T10:38:23.897Z,21.40
2018-10-21T10:40:52.599Z,21.30
2018-10-21T10:43:23.459Z,21.40
2018-10-21T10:45:51.957Z,21.40
2018-10-21T10:48:20.849Z,21.20
2018-10-21T10:50:50.464Z,20.90
2018-10-21T10:53:19.716Z,20.60
2018-10-21T10:55:52.273Z,20.60
2018-10-21T10:58:22.533Z,20.70
2018-10-21T11:00:50.983Z,20.60
2018-10-21T11:03:20.267Z,20.50
2018-10-21T11:05:48.975Z,20.70
2018-10-21T11:08:17.327Z,20.70
2018-10-21T11:10:45.698Z,20.70
2018-10-21T11:13:14.701Z,20.70
2018-10-21T11:15:43.164Z,20.80
2018-10-21T11:18:11.642Z,20.60
2018-10-21T11:20:40.450Z,20.60
2018-10-21T11:23:08.824Z,20.40
2018-10-21T11:25:38.048Z,20.60
2018-10-21T11:28:07.167Z,20.40
2018-10-21T11:30:35.787Z,20.30
2018-10-21T11:33:05.856Z,20.20
2018-10-21T11:35:34.129Z,19.80
2018-10-21T11:38:02.498Z,19.30
2018-10-21T11:40:30.922Z,19.00
2018-10-21T11:42:59.258Z,18.80
2018-10-21T11:45:27.534Z,18.80
2018-10-21T11:47:58.082Z,18.50
2018-10-21T11:50:26.395Z,18.40
2018-10-21T11:52:54.701Z,18.60
2018-10-21T11:55:23.113Z,18.50
2018-10-21T11:57:51.421Z,18.20
2018-10-21T12:00:19.882Z,17.90
2018-10-21T12:02:48.220Z,17.50
2018-10-21T12:05:16.503Z,17.40
2018-10-21T12:07:44.928Z,17.20
2018-10-21T12:10:13.398Z,17.00
2018-10-21T12:12:41.683Z,17.00
2018-10-21T12:15:11.146Z,17.00
2018-10-21T12:17:41.328Z,17.00
2018-10-21T12:20:09.842Z,17.00
2018-10-21T12:22:38.856Z,16.90
2018-10-21T12:25:07.250Z,16.70
2018-10-21T12:27:36.093Z,16.60
2018-10-21T12:30:05.773Z,16.70
2018-10-21T12:32:34.126Z,16.60
2018-10-21T12:35:02.515Z,16.50
2018-10-21T12:37:30.902Z,16.40
2018-10-21T12:39:59.522Z,16.30
2018-10-21T12:42:28.181Z,16.30
2018-10-21T12:44:56.528Z,16.20
2018-10-21T12:47:24.896Z,16.40
2018-10-21T12:49:53.182Z,16.40
2018-10-21T12:52:21.554Z,16.50
2018-10-21T12:54:51.297Z,16.40
2018-10-21T12:57:20.494Z,16.30
2018-10-21T12:59:48.819Z,16.30
2018-10-21T13:02:17.291Z,16.20
2018-10-21T13:04:45.669Z,16.30
2018-10-21T13:07:13.991Z,16.40
2018-10-21T13:09:42.406Z,16.30
2018-10-21T13:12:10.739Z,16.40
2018-10-21T13:14:39.081Z,16.40
2018-10-21T13:17:07.368Z,16.50
2018-10-21T13:19:35.786Z,16.50
2018-10-21T13:22:04.101Z,16.70
2018-10-21T13:24:32.368Z,16.80
2018-10-21T13:27:00.736Z,16.90
2018-10-21T13:29:29.043Z,16.80
2018-10-21T13:31:57.311Z,16.70
2018-10-21T13:34:25.624Z,16.70
2018-10-21T13:36:53.881Z,16.60
2018-10-21T13:39:22.223Z,16.70
2018-10-21T13:41:50.526Z,16.60
2018-10-21T13:44:18.886Z,16.50
2018-10-21T13:46:47.216Z,16.50
2018-10-21T13:49:15.763Z,16.50
2018-10-21T13:51:44.076Z,16.50
2018-10-21T13:54:12.389Z,16.30
2018-10-21T13:56:40.728Z,16.30
2018-10-21T13:59:09.576Z,16.30
2018-10-21T14:01:37.830Z,16.30
2018-10-21T14:04:06.114Z,16.30
2018-10-21T14:06:34.465Z,16.30
2018-10-21T14:09:03.030Z,16.20
2018-10-21T14:11:31.279Z,16.40
2018-10-21T14:13:59.619Z,16.40
2018-10-21T14:16:28.028Z,16.40
2018-10-21T14:18:56.160Z,16.40
2018-10-21T14:21:24.411Z,16.40
2018-10-21T14:23:52.846Z,16.40
2018-10-21T14:26:21.432Z,16.50
2018-10-21T14:28:50.682Z,16.50
2018-10-21T14:31:19.041Z,16.40
2018-10-21T14:33:47.365Z,16.40
2018-10-21T14:36:15.720Z,16.60
2018-10-21T14:38:43.941Z,16.60
2018-10-21T14:41:12.248Z,16.60
2018-10-21T14:43:40.546Z,16.60
2018-10-21T14:46:08.906Z,16.80
2018-10-21T14:48:37.140Z,16.70
2018-10-21T14:51:05.487Z,16.70
2018-10-21T14:53:33.972Z,16.70
2018-10-21T14:56:02.397Z,16.70
2018-10-21T14:58:30.990Z,16.70
2018-10-21T15:00:59.254Z,16.60
2018-10-21T15:03:27.618Z,16.70
2018-10-21T15:05:55.940Z,16.80
2018-10-21T15:08:24.218Z,16.70
2018-10-21T15:10:52.522Z,16.70
2018-10-21T15:13:20.713Z,16.50
2018-10-21T15:15:49.024Z,16.40
2018-10-21T15:18:17.469Z,16.50
2018-10-21T15:20:45.623Z,16.40
2018-10-21T15:23:13.995Z,16.50
2018-10-21T15:25:42.740Z,16.50
2018-10-21T15:28:11.080Z,16.60
2018-10-21T15:30:39.306Z,16.60
2018-10-21T15:33:07.729Z,16.60
2018-10-21T15:35:36.514Z,16.50
2018-10-21T15:38:05.076Z,16.40
2018-10-21T15:40:33.426Z,16.40
2018-10-21T15:43:01.694Z,16.30
2018-10-21T15:45:29.974Z,16.30
2018-10-21T15:47:58.401Z,16.30
2018-10-21T15:50:26.739Z,16.30
2018-10-21T15:52:55.098Z,16.20
2018-10-21T15:55:23.434Z,16.30
2018-10-21T15:57:51.817Z,16.30
2018-10-21T16:00:20.148Z,16.40
2018-10-21T16:02:48.606Z,16.40
2018-10-21T16:05:17.206Z,16.30
2018-10-21T16:07:45.571Z,16.20
2018-10-21T16:10:13.970Z,16.20
2018-10-21T16:12:42.190Z,16.10
2018-10-21T16:15:13.088Z,16.00
2018-10-21T16:17:42.334Z,15.90
2018-10-21T16:20:10.699Z,15.90
2018-10-21T16:22:40.264Z,15.70
2018-10-21T16:25:14.674Z,15.70
2018-10-21T16:27:43.177Z,15.60
2018-10-21T16:30:13.518Z,15.50
2018-10-21T16:32:42.721Z,15.50
2018-10-21T16:35:11.568Z,15.40
2018-10-21T16:37:40.431Z,15.40
2018-10-21T16:40:11.296Z,15.40
2018-10-21T16:42:40.064Z,15.30
2018-10-21T16:45:09.092Z,15.30
2018-10-21T16:47:38.022Z,15.30
2018-10-21T16:50:08.626Z,15.20
2018-10-21T16:52:37.116Z,15.00
2018-10-21T16:55:06.822Z,15.00
2018-10-21T16:57:35.336Z,14.90
2018-10-21T17:00:03.924Z,14.80
2018-10-21T17:02:32.230Z,14.80
2018-10-21T17:05:00.532Z,14.70
2018-10-21T17:07:28.774Z,14.60
2018-10-21T17:09:57.420Z,14.60
2018-10-21T17:12:25.321Z,14.60
2018-10-21T17:14:53.682Z,14.50
2018-10-21T17:17:21.961Z,14.50
2018-10-21T17:19:50.398Z,14.40
2018-10-21T17:22:18.812Z,14.40
2018-10-21T17:24:47.651Z,14.30
2018-10-21T17:27:16.121Z,14.10
2018-10-21T17:29:44.496Z,14.00
2018-10-21T17:32:13.066Z,14.00
2018-10-21T17:34:41.382Z,13.90
2018-10-21T17:37:09.792Z,13.70
2018-10-21T17:39:38.034Z,13.80
2018-10-21T17:42:06.751Z,13.70
2018-10-21T17:44:35.044Z,13.60
2018-10-21T17:47:03.377Z,13.60
2018-10-21T17:49:31.754Z,13.50
2018-10-21T17:52:00.330Z,13.40
2018-10-21T17:54:28.572Z,13.30
2018-10-21T17:56:57.223Z,13.30
2018-10-21T17:59:25.572Z,13.20
2018-10-21T18:01:54.210Z,13.10
2018-10-21T18:04:22.483Z,13.00
2018-10-21T18:06:50.850Z,13.00
2018-10-21T18:09:19.065Z,13.00
2018-10-21T18:11:47.441Z,12.90
2018-10-21T18:14:15.745Z,12.90
2018-10-21T18:16:44.085Z,12.90
2018-10-21T18:19:12.610Z,12.90
2018-10-21T18:21:40.892Z,12.80
2018-10-21T18:24:09.186Z,12.80
2018-10-21T18:26:37.491Z,12.80
2018-10-21T18:29:06.526Z,12.70
2018-10-21T18:31:34.856Z,12.70
2018-10-21T18:34:03.197Z,12.60
2018-10-21T18:36:31.472Z,12.50
2018-10-21T18:38:59.791Z,12.50
2018-10-21T18:41:28.082Z,12.40
2018-10-21T18:43:56.446Z,12.40
2018-10-21T18:46:24.903Z,12.30
2018-10-21T18:48:53.170Z,12.20
2018-10-21T18:51:21.458Z,12.20
2018-10-21T18:53:49.784Z,12.20
2018-10-21T18:56:18.059Z,12.20
2018-10-21T18:58:46.350Z,12.10
2018-10-21T19:01:14.651Z,12.10
2018-10-21T19:03:42.972Z,12.20
2018-10-21T19:06:11.444Z,12.10
2018-10-21T19:08:39.754Z,12.10
2018-10-21T19:11:08.251Z,12.10
2018-10-21T19:13:36.606Z,12.10
2018-10-21T19:16:05.272Z,12.10
2018-10-21T19:18:41.048Z,12.10
2018-10-21T19:21:09.548Z,12.10
2018-10-21T19:23:37.912Z,12.10
2018-10-21T19:26:06.578Z,12.10
2018-10-21T19:28:34.898Z,12.00
2018-10-21T19:31:03.321Z,12.00
2018-10-21T19:33:31.608Z,12.00
2018-10-21T19:36:00.004Z,11.90
2018-10-21T19:38:28.357Z,12.00
2018-10-21T19:40:57.848Z,12.00
2018-10-21T19:43:26.253Z,12.00
2018-10-21T19:45:55.172Z,11.90
2018-10-21T19:48:30.633Z,11.90
2018-10-21T19:51:05.522Z,11.90
2018-10-21T19:53:34.538Z,11.80
2018-10-21T19:56:03.026Z,11.70
2018-10-21T19:58:31.372Z,11.60
2018-10-21T20:00:59.660Z,11.60
2018-10-21T20:03:27.886Z,11.60
2018-10-21T20:05:56.178Z,11.50
2018-10-21T20:08:24.667Z,11.50
2018-10-21T20:10:53.067Z,11.40
2018-10-21T20:13:21.371Z,11.30
2018-10-21T20:15:49.751Z,11.30
2018-10-21T20:18:19.116Z,11.30
2018-10-21T20:20:49.413Z,11.30
2018-10-21T20:23:17.986Z,11.40
2018-10-21T20:25:46.654Z,11.30
2018-10-21T20:28:15.100Z,11.30
2018-10-21T20:30:43.816Z,11.20
2018-10-21T20:33:12.261Z,11.10
2018-10-21T20:35:40.503Z,11.10
2018-10-21T20:38:10.038Z,10.90
2018-10-21T20:40:38.671Z,10.90
2018-10-21T20:43:07.068Z,10.90
2018-10-21T20:45:35.587Z,10.90
2018-10-21T20:48:03.934Z,10.80
2018-10-21T20:50:32.292Z,10.80
2018-10-21T20:53:00.626Z,10.70
2018-10-21T20:55:29.146Z,10.70
2018-10-21T20:57:57.840Z,10.70
2018-10-21T21:00:26.132Z,10.60
2018-10-21T21:02:54.438Z,10.60
2018-10-21T21:05:22.762Z,10.60
2018-10-21T21:07:51.821Z,10.60
2018-10-21T21:10:20.446Z,10.50
2018-10-21T21:12:52.714Z,10.40
2018-10-21T21:15:21.731Z,10.30
2018-10-21T21:17:50.032Z,10.20
2018-10-21T21:20:18.687Z,10.20
2018-10-21T21:22:46.986Z,10.10
2018-10-21T21:25:16.540Z,10.10
2018-10-21T21:27:44.848Z,10.20
2018-10-21T21:30:13.288Z,10.20
2018-10-21T21:32:41.818Z,10.20
2018-10-21T21:35:10.218Z,10.10
2018-10-21T21:37:38.994Z,10.00
2018-10-21T21:40:09.336Z,10.00
2018-10-21T21:42:38.578Z,10.00
2018-10-21T21:45:07.294Z,9.90
2018-10-21T21:47:35.923Z,9.90
2018-10-21T21:50:10.200Z,9.80
2018-10-21T21:52:38.508Z,9.80
2018-10-21T21:55:07.113Z,9.90
2018-10-21T21:57:35.478Z,9.90
2018-10-21T22:00:04.895Z,10.00
2018-10-21T22:02:33.138Z,9.90
2018-10-21T22:05:01.858Z,9.80
2018-10-21T22:07:30.133Z,9.80
2018-10-21T22:09:58.658Z,9.80
2018-10-21T22:12:27.285Z,9.60
2018-10-21T22:14:55.737Z,9.70
2018-10-21T22:17:24.123Z,9.50
2018-10-21T22:19:52.490Z,9.50
2018-10-21T22:22:20.823Z,9.60
2018-10-21T22:24:49.433Z,9.60
2018-10-21T22:27:17.730Z,9.70
2018-10-21T22:29:46.311Z,9.70
2018-10-21T22:32:14.858Z,9.80
2018-10-21T22:34:43.125Z,9.90
2018-10-21T22:37:11.401Z,10.00
2018-10-21T22:39:40.054Z,10.00
2018-10-21T22:42:08.395Z,10.00
2018-10-21T22:44:36.649Z,10.10
2018-10-21T22:47:05.211Z,10.20
2018-10-21T22:49:33.657Z,10.10
2018-10-21T22:52:02.300Z,10.10
2018-10-21T22:54:30.594Z,10.10
2018-10-21T22:56:58.922Z,9.90
2018-10-21T22:59:27.212Z,9.90
2018-10-21T23:01:55.723Z,9.70
2018-10-21T23:04:24.027Z,9.50
2018-10-21T23:06:52.276Z,9.40
2018-10-21T23:09:20.610Z,9.20
2018-10-21T23:11:49.099Z,9.00
2018-10-21T23:14:17.221Z,9.00
2018-10-21T23:16:45.668Z,8.90
2018-10-21T23:19:40.474Z,8.90
2018-10-21T23:22:08.844Z,8.90
2018-10-21T23:24:37.848Z,9.00
2018-10-21T23:27:06.444Z,9.10
2018-10-21T23:29:34.850Z,9.10
2018-10-21T23:32:03.198Z,9.10
2018-10-21T23:34:31.624Z,9.10
2018-10-21T23:36:59.960Z,9.10
2018-10-21T23:39:28.862Z,9.10
2018-10-21T23:41:57.741Z,9.00
2018-10-21T23:44:26.035Z,9.10
2018-10-21T23:46:54.427Z,9.00
2018-10-21T23:49:22.699Z,9.00
2018-10-21T23:51:50.969Z,9.00
2018-10-21T23:54:19.241Z,9.00
2018-10-21T23:56:47.527Z,9.00
2018-10-21T23:59:15.816Z,8.90
